Terminal Aerodrome Forecast
Issued by NWS Charleston, SC

Home | Current Version | Previous Version | Text Only | Print | Product List | Glossary On
Versions: 1 2 3 4 5 6 7 8 9 10 11 12 13 14 15 16
000
FTUS42 KCHS 202000 AAB
TAFCHS
TAF AMD
KCHS 202041Z 2021/2118 04007KT P6SM OVC007
      TEMPO 2021/2023 SCT007 OVC035
     FM202300 02008KT 6SM BR SCT005 OVC010
     FM210600 02007KT 4SM BR BKN005 OVC010
     FM211300 02007KT P6SM SCT005 OVC015=

USA.gov is the U.S. government's official web portal to all federal, state and local government web resources and services.